Terminal Aerodrome Forecast
Issued by NWS Jackson, MS

Home | Current Version | Previous Version | Text Only | Print | Product List | Glossary On
Versions: 1 2 3 4 5 6 7 8 9 10 11 12 13 14 15 16
693
FTUS44 KJAN 222059 AAC
TAFGLH
TAF AMD
KGLH 222059Z 2221/2318 29011KT P6SM BKN060 OVC080
     FM230000 32018G30KT P6SM -SHRA BKN025 OVC060
     FM230900 33015G25KT P6SM SKC
     FM231600 33012KT P6SM OVC025=

USA.gov is the U.S. government's official web portal to all federal, state and local government web resources and services.